LPE2393 SPJC-SKRG
Flight info
| Callsign | LPE2393 |
|---|---|
| Flight time | N/A |
| Altitude | 34000 |
| Route | ATATU UM674 BOBUG/N0453F350 UM674 ROBIG/N0454F360 UM674 QIT UP778 CLO/N0447F370 DCT PEI DCT NIRSO NIRSO3C |
| Aircraft | A320/M-SDE3FGHIRWY/LB1 |
Departure
| Time | N/A |
|---|---|
| Airport | Jorge Chávez International Airport (SPJC) |
Arrival
| Time | 2026-04-29 17:02 |
|---|---|
| Airport | Jose Maria Córdova International Airport (SKRG) |
| Time | Latitude | Longitude | Altitude | Speed | Heading |
|---|---|---|---|---|---|
| 2026-04-29 15:38 | -2.90816 | -78.37010 | 34162 ft | 439 kts | 357° |
| 2026-04-29 15:39 | -2.84712 | -78.37308 | 34161 ft | 439 kts | 357° |
| 2026-04-29 15:39 | -2.78611 | -78.37611 | 34160 ft | 439 kts | 357° |
| 2026-04-29 15:40 | -2.72500 | -78.37922 | 34157 ft | 439 kts | 357° |
| 2026-04-29 15:40 | -2.66398 | -78.38222 | 34166 ft | 439 kts | 357° |
| 2026-04-29 15:41 | -2.60291 | -78.38523 | 34164 ft | 440 kts | 357° |
| 2026-04-29 15:41 | -2.54178 | -78.38702 | 34167 ft | 440 kts | 5° |
| 2026-04-29 15:42 | -2.48074 | -78.38162 | 34164 ft | 440 kts | 5° |
| 2026-04-29 15:42 | -2.41959 | -78.37604 | 34162 ft | 441 kts | 5° |
| 2026-04-29 15:43 | -2.35886 | -78.37050 | 34162 ft | 441 kts | 5° |
| 2026-04-29 15:43 | -2.29733 | -78.36490 | 34164 ft | 441 kts | 5° |
| 2026-04-29 15:44 | -2.23654 | -78.35940 | 34166 ft | 441 kts | 5° |
| 2026-04-29 15:44 | -2.17540 | -78.35380 | 34167 ft | 441 kts | 5° |
| 2026-04-29 15:45 | -2.11422 | -78.34823 | 34169 ft | 441 kts | 5° |
| 2026-04-29 15:45 | -2.05329 | -78.34054 | 34179 ft | 441 kts | 9° |
| 2026-04-29 15:46 | -1.99291 | -78.33009 | 34180 ft | 441 kts | 10° |
| 2026-04-29 15:46 | -1.93243 | -78.31952 | 34168 ft | 441 kts | 9° |
| 2026-04-29 15:47 | -1.87181 | -78.30968 | 34162 ft | 441 kts | 9° |
| 2026-04-29 15:47 | -1.81120 | -78.30013 | 34157 ft | 441 kts | 9° |
| 2026-04-29 15:48 | -1.75049 | -78.29046 | 34136 ft | 442 kts | 9° |
| 2026-04-29 15:48 | -1.68978 | -78.28078 | 34135 ft | 442 kts | 9° |
| 2026-04-29 15:49 | -1.62940 | -78.27112 | 34130 ft | 442 kts | 9° |
| 2026-04-29 15:49 | -1.56860 | -78.26135 | 34134 ft | 442 kts | 9° |
| 2026-04-29 15:50 | -1.50780 | -78.25161 | 34135 ft | 442 kts | 9° |
| 2026-04-29 15:50 | -1.44704 | -78.24186 | 34145 ft | 442 kts | 10° |
| 2026-04-29 15:51 | -1.38636 | -78.23213 | 34161 ft | 441 kts | 9° |
| 2026-04-29 15:51 | -1.32584 | -78.22247 | 34198 ft | 440 kts | 9° |
| 2026-04-29 15:52 | -1.26532 | -78.21278 | 34201 ft | 440 kts | 9° |
| 2026-04-29 15:52 | -1.20483 | -78.20302 | 34200 ft | 440 kts | 9° |
| 2026-04-29 15:53 | -1.14440 | -78.19334 | 34239 ft | 440 kts | 9° |
| 2026-04-29 15:53 | -1.09415 | -78.18528 | 34242 ft | 440 kts | 10° |
| 2026-04-29 15:54 | -1.02394 | -78.17408 | 34285 ft | 439 kts | 10° |
| 2026-04-29 15:54 | -0.97342 | -78.16597 | 34283 ft | 439 kts | 10° |
| 2026-04-29 15:55 | -0.91315 | -78.15630 | 34280 ft | 438 kts | 9° |
| 2026-04-29 15:55 | -0.85333 | -78.14672 | 34317 ft | 438 kts | 9° |
| 2026-04-29 15:56 | -0.79320 | -78.13707 | 34311 ft | 437 kts | 10° |
| 2026-04-29 15:56 | -0.73312 | -78.12745 | 34339 ft | 438 kts | 10° |
| 2026-04-29 15:57 | -0.67301 | -78.11784 | 34337 ft | 437 kts | 9° |
| 2026-04-29 15:57 | -0.61289 | -78.10825 | 34339 ft | 437 kts | 9° |
| 2026-04-29 15:58 | -0.55277 | -78.09860 | 34336 ft | 437 kts | 10° |
| 2026-04-29 15:58 | -0.49268 | -78.08901 | 34337 ft | 437 kts | 9° |
| 2026-04-29 15:59 | -0.43267 | -78.07937 | 34351 ft | 437 kts | 10° |
| 2026-04-29 15:59 | -0.37256 | -78.06977 | 34352 ft | 437 kts | 10° |
| 2026-04-29 16:00 | -0.31247 | -78.06013 | 34355 ft | 437 kts | 9° |
| 2026-04-29 16:00 | -0.25243 | -78.05051 | 34356 ft | 437 kts | 10° |
| 2026-04-29 16:01 | -0.19236 | -78.04087 | 34357 ft | 437 kts | 9° |
| 2026-04-29 16:01 | -0.13228 | -78.03126 | 34354 ft | 437 kts | 9° |
| 2026-04-29 16:02 | -0.07225 | -78.02167 | 34350 ft | 437 kts | 9° |
| 2026-04-29 16:02 | -0.01233 | -78.01205 | 34346 ft | 436 kts | 9° |
| 2026-04-29 16:03 | 0.04770 | -78.00245 | 34326 ft | 437 kts | 9° |
| 2026-04-29 16:03 | 0.10777 | -77.99287 | 34327 ft | 437 kts | 9° |
| 2026-04-29 16:04 | 0.16778 | -77.98329 | 34284 ft | 437 kts | 9° |
| 2026-04-29 16:04 | 0.22777 | -77.97366 | 34285 ft | 437 kts | 9° |
| 2026-04-29 16:05 | 0.28739 | -77.96412 | 34287 ft | 437 kts | 9° |
| 2026-04-29 16:05 | 0.34750 | -77.95452 | 34236 ft | 437 kts | 9° |
| 2026-04-29 16:06 | 0.40765 | -77.94484 | 34219 ft | 439 kts | 9° |
| 2026-04-29 16:06 | 0.46802 | -77.93514 | 34185 ft | 440 kts | 9° |
| 2026-04-29 16:07 | 0.52862 | -77.92540 | 34189 ft | 441 kts | 9° |
| 2026-04-29 16:07 | 0.58935 | -77.91568 | 34198 ft | 442 kts | 9° |
| 2026-04-29 16:08 | 0.65014 | -77.90599 | 34172 ft | 443 kts | 9° |
| 2026-04-29 16:08 | 0.71100 | -77.89629 | 34177 ft | 443 kts | 9° |
| 2026-04-29 16:09 | 0.77181 | -77.88654 | 34151 ft | 443 kts | 11° |
| 2026-04-29 16:09 | 0.83020 | -77.86823 | 34146 ft | 440 kts | 29° |
| 2026-04-29 16:10 | 0.88343 | -77.83816 | 34144 ft | 440 kts | 31° |
| 2026-04-29 16:10 | 0.93667 | -77.80781 | 34377 ft | 440 kts | 31° |
| 2026-04-29 16:11 | 0.98997 | -77.77755 | 34370 ft | 441 kts | 31° |
| 2026-04-29 16:11 | 1.04338 | -77.74730 | 34332 ft | 441 kts | 31° |
| 2026-04-29 16:12 | 1.09639 | -77.71724 | 34262 ft | 441 kts | 31° |
| 2026-04-29 16:12 | 1.14976 | -77.68692 | 34188 ft | 441 kts | 30° |
| 2026-04-29 16:13 | 1.20313 | -77.65661 | 34102 ft | 441 kts | 30° |
| 2026-04-29 16:13 | 1.25656 | -77.62627 | 34079 ft | 441 kts | 30° |
| 2026-04-29 16:14 | 1.30995 | -77.59597 | 34100 ft | 441 kts | 30° |
| 2026-04-29 16:14 | 1.36344 | -77.56554 | 34086 ft | 443 kts | 31° |
| 2026-04-29 16:15 | 1.41711 | -77.53508 | 34025 ft | 444 kts | 30° |
| 2026-04-29 16:15 | 1.47092 | -77.50456 | 34050 ft | 445 kts | 31° |
| 2026-04-29 16:16 | 1.52481 | -77.47395 | 34026 ft | 446 kts | 31° |
| 2026-04-29 16:16 | 1.57871 | -77.44330 | 34035 ft | 446 kts | 31° |
| 2026-04-29 16:17 | 1.63266 | -77.41262 | 34039 ft | 446 kts | 31° |
| 2026-04-29 16:17 | 1.68624 | -77.38220 | 34027 ft | 446 kts | 31° |
| 2026-04-29 16:18 | 1.74020 | -77.35157 | 34042 ft | 446 kts | 31° |
| 2026-04-29 16:18 | 1.79417 | -77.32093 | 34040 ft | 446 kts | 31° |
| 2026-04-29 16:19 | 1.84812 | -77.29025 | 34036 ft | 446 kts | 30° |
| 2026-04-29 16:19 | 1.90200 | -77.25956 | 34035 ft | 446 kts | 30° |
| 2026-04-29 16:20 | 1.95597 | -77.22887 | 34047 ft | 446 kts | 30° |
| 2026-04-29 16:20 | 2.01002 | -77.19819 | 34048 ft | 447 kts | 30° |
| 2026-04-29 16:21 | 2.06420 | -77.16742 | 34046 ft | 448 kts | 30° |
| 2026-04-29 16:21 | 2.11841 | -77.13664 | 34060 ft | 448 kts | 30° |
| 2026-04-29 16:22 | 2.17261 | -77.10580 | 34063 ft | 449 kts | 30° |
| 2026-04-29 16:22 | 2.22686 | -77.07490 | 34074 ft | 449 kts | 30° |
| 2026-04-29 16:23 | 2.28124 | -77.04397 | 34068 ft | 450 kts | 32° |
| 2026-04-29 16:23 | 2.33570 | -77.01297 | 34062 ft | 451 kts | 31° |
| 2026-04-29 16:24 | 2.39028 | -76.98196 | 34058 ft | 452 kts | 31° |
| 2026-04-29 16:24 | 2.44456 | -76.95111 | 34062 ft | 452 kts | 30° |
| 2026-04-29 16:25 | 2.49945 | -76.91985 | 34075 ft | 452 kts | 32° |
| 2026-04-29 16:25 | 2.55418 | -76.88860 | 34069 ft | 452 kts | 31° |
| 2026-04-29 16:26 | 2.60876 | -76.85758 | 34101 ft | 453 kts | 31° |
| 2026-04-29 16:26 | 2.66352 | -76.82652 | 34091 ft | 453 kts | 30° |
| 2026-04-29 16:27 | 2.71841 | -76.79527 | 34071 ft | 454 kts | 31° |
| 2026-04-29 16:27 | 2.77330 | -76.76398 | 34075 ft | 454 kts | 31° |
| 2026-04-29 16:28 | 2.82797 | -76.73281 | 34065 ft | 454 kts | 31° |
| 2026-04-29 16:28 | 2.88292 | -76.70160 | 34068 ft | 455 kts | 30° |
| 2026-04-29 16:29 | 2.93814 | -76.67022 | 34070 ft | 455 kts | 31° |
| 2026-04-29 16:29 | 2.99306 | -76.63892 | 34072 ft | 454 kts | 31° |
| 2026-04-29 16:30 | 3.04786 | -76.60769 | 34075 ft | 454 kts | 31° |
| 2026-04-29 16:30 | 3.10260 | -76.57656 | 34075 ft | 454 kts | 30° |
| 2026-04-29 16:31 | 3.15781 | -76.54510 | 34062 ft | 454 kts | 31° |
| 2026-04-29 16:31 | 3.21255 | -76.51390 | 34061 ft | 454 kts | 30° |
| 2026-04-29 16:32 | 3.26715 | -76.48279 | 34058 ft | 454 kts | 31° |
| 2026-04-29 16:32 | 3.32205 | -76.45150 | 34056 ft | 454 kts | 30° |
| 2026-04-29 16:33 | 3.40469 | -76.40517 | 34054 ft | 454 kts | 25° |
| 2026-04-29 16:33 | 3.46335 | -76.38075 | 34051 ft | 455 kts | 23° |
| 2026-04-29 16:34 | 3.52146 | -76.35684 | 34060 ft | 455 kts | 23° |
| 2026-04-29 16:34 | 3.57993 | -76.33271 | 34060 ft | 455 kts | 23° |
| 2026-04-29 16:35 | 3.63873 | -76.30848 | 34062 ft | 455 kts | 23° |
| 2026-04-29 16:35 | 3.69689 | -76.28454 | 34069 ft | 455 kts | 23° |
| 2026-04-29 16:36 | 3.75529 | -76.26051 | 34094 ft | 454 kts | 23° |
| 2026-04-29 16:36 | 3.81365 | -76.23639 | 34096 ft | 453 kts | 23° |
| 2026-04-29 16:37 | 3.87172 | -76.21233 | 34128 ft | 452 kts | 23° |
| 2026-04-29 16:37 | 3.92038 | -76.19222 | 34127 ft | 451 kts | 23° |
| 2026-04-29 16:38 | 3.98782 | -76.16434 | 34127 ft | 451 kts | 23° |
| 2026-04-29 16:38 | 4.04582 | -76.14041 | 34118 ft | 451 kts | 24° |
| 2026-04-29 16:39 | 4.10375 | -76.11653 | 34116 ft | 450 kts | 24° |
| 2026-04-29 16:39 | 4.16176 | -76.09262 | 34075 ft | 451 kts | 24° |
| 2026-04-29 16:40 | 4.21983 | -76.06861 | 34099 ft | 451 kts | 24° |
| 2026-04-29 16:40 | 4.27788 | -76.04451 | 34100 ft | 452 kts | 24° |
| 2026-04-29 16:41 | 4.32613 | -76.02448 | 34075 ft | 452 kts | 24° |
| 2026-04-29 16:41 | 4.38429 | -76.00048 | 34079 ft | 452 kts | 24° |
| 2026-04-29 16:42 | 4.45192 | -75.97264 | 34070 ft | 452 kts | 24° |
| 2026-04-29 16:42 | 4.50063 | -75.95255 | 34073 ft | 452 kts | 24° |
| 2026-04-29 16:43 | 4.55870 | -75.92849 | 34104 ft | 452 kts | 24° |
| 2026-04-29 16:43 | 4.61637 | -75.90455 | 34115 ft | 451 kts | 24° |
| 2026-04-29 16:44 | 4.67447 | -75.88051 | 34129 ft | 452 kts | 24° |
| 2026-04-29 16:44 | 4.73262 | -75.85649 | 34126 ft | 453 kts | 24° |
| 2026-04-29 16:45 | 4.78948 | -75.82957 | 34130 ft | 451 kts | 36° |
| 2026-04-29 16:45 | 4.83918 | -75.79126 | 34114 ft | 452 kts | 39° |
| 2026-04-29 16:46 | 4.88888 | -75.75236 | 34111 ft | 454 kts | 39° |
| 2026-04-29 16:46 | 4.93888 | -75.71333 | 34138 ft | 456 kts | 39° |
| 2026-04-29 16:47 | 4.96383 | -75.69384 | 33215 ft | 454 kts | 39° |
| 2026-04-29 16:47 | 4.98865 | -75.67445 | 32232 ft | 452 kts | 40° |
| 2026-04-29 16:47 | 5.01336 | -75.65513 | 31374 ft | 447 kts | 40° |
| 2026-04-29 16:47 | 5.03771 | -75.63606 | 30566 ft | 441 kts | 40° |
| 2026-04-29 16:48 | 5.06171 | -75.61726 | 29668 ft | 435 kts | 40° |
| 2026-04-29 16:48 | 5.08544 | -75.59872 | 28806 ft | 429 kts | 40° |
| 2026-04-29 16:48 | 5.10840 | -75.58079 | 28293 ft | 415 kts | 40° |
| 2026-04-29 16:48 | 5.13102 | -75.56314 | 27933 ft | 400 kts | 40° |
| 2026-04-29 16:49 | 5.15272 | -75.54618 | 27384 ft | 392 kts | 40° |
| 2026-04-29 16:49 | 5.17408 | -75.52945 | 26694 ft | 387 kts | 40° |
| 2026-04-29 16:49 | 5.19555 | -75.51259 | 25507 ft | 398 kts | 39° |
| 2026-04-29 16:49 | 5.21757 | -75.49528 | 24474 ft | 404 kts | 39° |
| 2026-04-29 16:50 | 5.23968 | -75.47794 | 23655 ft | 402 kts | 39° |
| 2026-04-29 16:50 | 5.26161 | -75.46077 | 22793 ft | 397 kts | 39° |
| 2026-04-29 16:50 | 5.28326 | -75.44386 | 21968 ft | 391 kts | 39° |
| 2026-04-29 16:50 | 5.30439 | -75.42736 | 21493 ft | 376 kts | 39° |
| 2026-04-29 16:51 | 5.32518 | -75.41293 | 21215 ft | 363 kts | 29° |
| 2026-04-29 16:51 | 5.34820 | -75.40359 | 20872 ft | 355 kts | 16° |
| 2026-04-29 16:51 | 5.37268 | -75.39995 | 20423 ft | 357 kts | 3° |
| 2026-04-29 16:51 | 5.39751 | -75.40106 | 19980 ft | 357 kts | 358° |
| 2026-04-29 16:52 | 5.42228 | -75.40258 | 19552 ft | 356 kts | 359° |
| 2026-04-29 16:52 | 5.44697 | -75.40403 | 19119 ft | 356 kts | 358° |
| 2026-04-29 16:52 | 5.47173 | -75.40540 | 18654 ft | 355 kts | 359° |
| 2026-04-29 16:52 | 5.49637 | -75.40673 | 18212 ft | 354 kts | 359° |
| 2026-04-29 16:53 | 5.52115 | -75.40806 | 17474 ft | 361 kts | 359° |
| 2026-04-29 16:53 | 5.54619 | -75.40940 | 17064 ft | 356 kts | 359° |
| 2026-04-29 16:53 | 5.57026 | -75.41077 | 16767 ft | 339 kts | 359° |
| 2026-04-29 16:53 | 5.59363 | -75.41210 | 16200 ft | 333 kts | 359° |
| 2026-04-29 16:54 | 5.61673 | -75.41342 | 15701 ft | 330 kts | 359° |
| 2026-04-29 16:54 | 5.63942 | -75.41470 | 15294 ft | 322 kts | 359° |
| 2026-04-29 16:54 | 5.66149 | -75.41595 | 14908 ft | 312 kts | 359° |
| 2026-04-29 16:54 | 5.68292 | -75.41714 | 14537 ft | 306 kts | 359° |
| 2026-04-29 16:55 | 5.70401 | -75.41830 | 14163 ft | 302 kts | 359° |
| 2026-04-29 16:55 | 5.72454 | -75.41944 | 13918 ft | 287 kts | 359° |
| 2026-04-29 16:55 | 5.74396 | -75.42053 | 13623 ft | 279 kts | 359° |
| 2026-04-29 16:55 | 5.76327 | -75.42161 | 13488 ft | 277 kts | 359° |
| 2026-04-29 16:56 | 5.78248 | -75.42256 | 13354 ft | 276 kts | 1° |
| 2026-04-29 16:56 | 5.80183 | -75.42265 | 12877 ft | 282 kts | 6° |
| 2026-04-29 16:56 | 5.82136 | -75.42120 | 12493 ft | 279 kts | 5° |
| 2026-04-29 16:56 | 5.84077 | -75.42085 | 12191 ft | 280 kts | 2° |
| 2026-04-29 16:57 | 5.86023 | -75.42108 | 11980 ft | 276 kts | 1° |
| 2026-04-29 16:57 | 5.87913 | -75.42128 | 11856 ft | 269 kts | 1° |
| 2026-04-29 16:57 | 5.89784 | -75.42140 | 11561 ft | 268 kts | 2° |
| 2026-04-29 16:57 | 5.91641 | -75.42151 | 11260 ft | 267 kts | 3° |
| 2026-04-29 16:58 | 5.93495 | -75.42163 | 10952 ft | 265 kts | 1° |
| 2026-04-29 16:58 | 5.95341 | -75.42175 | 10646 ft | 265 kts | 2° |
| 2026-04-29 16:58 | 5.97160 | -75.42187 | 10368 ft | 258 kts | 1° |
| 2026-04-29 16:58 | 5.98940 | -75.42199 | 10070 ft | 252 kts | 2° |
| 2026-04-29 16:59 | 6.00665 | -75.42210 | 9781 ft | 244 kts | 0° |
| 2026-04-29 16:59 | 6.02331 | -75.42221 | 9485 ft | 239 kts | 1° |
| 2026-04-29 16:59 | 6.03973 | -75.42231 | 9180 ft | 231 kts | 1° |
| 2026-04-29 16:59 | 6.05545 | -75.42242 | 8904 ft | 221 kts | 1° |
| 2026-04-29 17:00 | 6.07037 | -75.42252 | 8647 ft | 208 kts | 1° |
| 2026-04-29 17:00 | 6.08446 | -75.42261 | 8404 ft | 195 kts | 1° |
| 2026-04-29 17:00 | 6.09746 | -75.42270 | 8157 ft | 182 kts | 2° |
| 2026-04-29 17:00 | 6.10983 | -75.42278 | 7900 ft | 173 kts | 1° |
| 2026-04-29 17:01 | 6.12174 | -75.42285 | 7642 ft | 170 kts | 0° |
| 2026-04-29 17:01 | 6.13340 | -75.42292 | 7365 ft | 167 kts | 1° |
| 2026-04-29 17:01 | 6.14490 | -75.42304 | 7122 ft | 164 kts | 360° |
| 2026-04-29 17:01 | 6.15595 | -75.42302 | 6982 ft | 148 kts | 1° |
| 2026-04-29 17:02 | 6.16476 | -75.42308 | 6987 ft | 102 kts | 360° |
| 2026-04-29 17:02 | 6.16932 | -75.42325 | 7001 ft | 22 kts | 333° |
| 2026-04-29 17:02 | 6.17053 | -75.42383 | 7015 ft | 18 kts | 333° |
| 2026-04-29 17:02 | 6.17164 | -75.42443 | 7014 ft | 16 kts | 322° |
| 2026-04-29 17:03 | 6.17184 | -75.42519 | 7013 ft | 12 kts | 268° |
| 2026-04-29 17:03 | 6.17188 | -75.42597 | 7020 ft | 8 kts | 291° |
| 2026-04-29 17:03 | 6.17239 | -75.42618 | 7018 ft | 10 kts | 358° |
| 2026-04-29 17:03 | 6.17303 | -75.42644 | 7019 ft | 10 kts | 314° |
| 2026-04-29 17:04 | 6.17280 | -75.42696 | 7018 ft | 9 kts | 225° |
| 2026-04-29 17:04 | 6.17253 | -75.42728 | 7018 ft | 3 kts | 229° |
| 2026-04-29 17:04 | 6.17251 | -75.42729 | 7018 ft | 0 kts | 229° |